Regina, Canada
Current Conditions -  °F | °C
As of 9:00 PM on Saturday 25 Oct 2014 (Local Time) from CYQR Reporting Station
Broken Clouds Broken Clouds  
Wind Chill: 42°   Ceiling: 14000
Heat Index: 48°   Visibility: 15mi
Dew Point: 30°   Wind: 16mph
Humidity: 50%   Direction: 120°ESE
Pressure: 29.83"   Gusts: NA
Location:  50.45°N, 104.6°W
Report Text: CYQR 260300Z 12014KT 15SM BKN140 BKN210 09/M01 A2983 RMK AC6CI1 SLP122
Loading
Personal Weather Stations






























Interactive Weather Map
Tropical Storm Tracking
New forecast layout! Learn more

10-Day Weather Forecast

Advertisements
Track Severe Weather on mobile